首页
METAR-TAF:

METAR-TAF

机场 :

布達佩斯李斯特·費倫茨國際機場

布达佩斯, 匈牙利

纬度: 47-26N, 经度: 019-16E, 海拔: 151米

当前天气观测

该预报发布于14分钟前的07:00 UTC
风速8节,风向东南
温度 15°C
湿度 100%
气压 1006 hPa
能见度10公里或以上
多云层高于800英尺
多云层高于2000英尺

METAR: LHBP 200700Z 13008KT 9999 BKN008 BKN020 15/15 Q1006 BECMG BKN014 BKN045

时间: 09:14 (07:14 UTC)

预报

该预报发布于1小时和59分钟前的05:15 UTC
预报有效从20日的 06点(UTC)到 21日的 06点(UTC)
风速7节,风向南转南东
能見度: 4000
多云层高于400英尺
多云层高于4500英尺
轻雾
成为
从 20日的 06点(UTC)到 20日的 08点(UTC)
能见度10公里或以上
1500米以下无云,无积雨云
短暂存在
从 20日的 08点(UTC)到 20日的 11点(UTC)
多云层高于1400英尺
短暂存在
从 20日的 11点(UTC)到 20日的 19点(UTC)
风速20节,风向多变,有时为35节阵风
能見度: 4000
散云层高于2500英尺, 积雨云.
多云层高于5000英尺
阵雨, 雷暴, 雨
成为
从 20日的 19点(UTC)到 20日的 21点(UTC)
风速6节,风向南转西南

TAF: LHBP 200515Z 2006/2106 15007KT 4000 BR BKN004 BKN045 BECMG 2006/2008 CAVOK TEMPO 2008/2011 BKN014 TEMPO 2011/2019 VRB20G35KT 4000 SHRA TSRA SCT025CB BKN050 BECMG 2019/2021 21006KT

超过4000个机场的气象观测和天气预报(METAR&TAF报告)。

可查询的气象台以黄色和红色小点在地图上表示。

将鼠标移到小点上方,可查看气象台名称。

然后点击查看天气观测和预报。

如需切换地图:点击带黑十字的绿色按钮放大地图;点击带横线的绿色按钮缩小地图;或者点击绿色箭头查看邻近地区的地图。


METAR-TAF: